Riverdale, Kansas
Current Conditions -  °F | °C
As of 7:54 PM on Monday 24 Nov 2014 (Local Time) from KWLD Reporting Station
Clear Clear  
Wind Chill: 34°   Ceiling: Unl
Heat Index: 34°   Visibility: 10mi
Dew Point: 23°   Wind: 0mph
Humidity: 64%   Direction: NA
Pressure: 30.08"   Gusts: NA
Location:  37.2413°N, 97.3686°W
Report Text: KWLD 250154Z AUTO 00000KT 10SM CLR 01/M05 A3008 RMK AO2 SLP196 T00111050
Loading
Personal Weather Stations






























Interactive Weather Map New forecast layout! Learn more

10-Day Weather Forecast

Advertisements
Track Severe Weather on mobile